Westhampton, NY (11977)

2:39 PM EDT on March 27, 2017 (GMT -0400)
56 South Country Road | | Change Station

Elev 32 ft 40.83 °N, 72.63 °W | Updated 3 seconds ago

Overcast
Overcast
49.3 °F
Feels Like 47 °F
N
6.1
Wind Variable Wind from SSE
Gusts 8.0 mph

Today
High -- | Low -- °F
--% Chance of Precip.
Yesterday
High -- | Low -- °F
Precip. -- in
Pressure 30.03 in
Visibility 10.0 miles
Clouds Scattered Clouds 500 ft
Overcast 2600 ft
Windchill 47 °F
Dew Point 49 °F
Humidity 100%
Rainfall 0.07 in
Snow Depth Not available.
6:42 AM 7:10 PM
Waning Crescent, 0% visible
SPECI KFOK 271834Z 23005KT 10SM SCT005 OVC026 12/10 A3003 RMK AO2 T01220100
Pressure 30.03 in
Visibility 10.0 miles
Clouds Scattered Clouds 500 ft
Overcast 2600 ft
Windchill 47 °F
Dew Point 49 °F
Humidity 100%
Rainfall 0.07 in
Snow Depth Not available.
6:42 AM 7:10 PM
Waning Crescent, 0% visible
SPECI KFOK 271834Z 23005KT 10SM SCT005 OVC026 12/10 A3003 RMK AO2 T01220100

Get Severe Weather Alerts

Thanks for signing up!

Be on the lookout for a verification email in your inbox.

You'll start receiving the daily forecast at 8 AM.

×

10-Day Weather Forecast

Almanac

Astronomy

Mar. 27, 2017 Rise Set
Actual Time
Civil Twilight
Nautical Twilight
Astronomical Twilight
Moon
Length of Visible Light
Length of Day
Tomorrow will be .
, % of the Moon is Illuminated

Today's Extremes

State Highs State Lows

Community

WunderPhotos

Upload Photos

1,962,540 photos uploaded!

WunderBlog® & News

Nearby

Air Quality

  Air Quality AQ Index Pollutant
Not available.

Snow Depth

Station Depth Elevation

Earthquake Activity

City Distance Mag. Time & Date
Minimum magnitude displayed is 2.5.

Earthquake Activity

City Distance Mag. Time & Date
Minimum magnitude displayed is 2.5.

Coastal Water Temperatures

Place Temperature

Stations

Nearby Weather Stations

Station Location Temp. Windchill Dew Point Humidity Wind Precip. Elev Updated Type
                   

Watches & Warnings

There are currently no watches in effect.